sensor_id;sensor_type;location;lat;lon;timestamp;P1;durP1;ratioP1;P2;durP2;ratioP2
54897;SDS011;40800;52.704;6.398;2023-07-31T00:00:07;17.65;;;16.65;;
54897;SDS011;40800;52.704;6.398;2023-07-31T00:02:34;18.50;;;17.35;;
54897;SDS011;40800;52.704;6.398;2023-07-31T00:05:00;17.92;;;16.60;;
54897;SDS011;40800;52.704;6.398;2023-07-31T00:07:26;18.42;;;17.23;;
54897;SDS011;40800;52.704;6.398;2023-07-31T00:09:52;17.75;;;16.48;;
54897;SDS011;40800;52.704;6.398;2023-07-31T00:12:18;18.08;;;16.98;;
54897;SDS011;40800;52.704;6.398;2023-07-31T00:14:44;18.52;;;17.33;;
54897;SDS011;40800;52.704;6.398;2023-07-31T00:17:11;17.95;;;16.88;;
54897;SDS011;40800;52.704;6.398;2023-07-31T00:19:36;18.13;;;17.02;;
54897;SDS011;40800;52.704;6.398;2023-07-31T00:22:02;18.40;;;17.27;;
54897;SDS011;40800;52.704;6.398;2023-07-31T00:24:28;17.88;;;16.77;;
54897;SDS011;40800;52.704;6.398;2023-07-31T00:26:54;18.08;;;16.88;;
54897;SDS011;40800;52.704;6.398;2023-07-31T00:29:19;18.98;;;17.88;;
54897;SDS011;40800;52.704;6.398;2023-07-31T00:31:45;17.77;;;16.67;;
54897;SDS011;40800;52.704;6.398;2023-07-31T00:34:10;18.35;;;17.00;;
54897;SDS011;40800;52.704;6.398;2023-07-31T00:36:36;17.88;;;16.67;;
54897;SDS011;40800;52.704;6.398;2023-07-31T00:39:02;18.17;;;17.05;;
54897;SDS011;40800;52.704;6.398;2023-07-31T00:41:27;17.70;;;16.63;;
54897;SDS011;40800;52.704;6.398;2023-07-31T00:43:53;18.08;;;16.88;;
54897;SDS011;40800;52.704;6.398;2023-07-31T00:46:18;17.65;;;16.45;;
54897;SDS011;40800;52.704;6.398;2023-07-31T00:48:45;17.77;;;16.63;;
54897;SDS011;40800;52.704;6.398;2023-07-31T00:51:11;17.52;;;16.50;;
54897;SDS011;40800;52.704;6.398;2023-07-31T00:53:36;17.50;;;16.40;;
54897;SDS011;40800;52.704;6.398;2023-07-31T00:56:03;17.38;;;16.27;;
54897;SDS011;40800;52.704;6.398;2023-07-31T00:58:29;17.90;;;16.80;;
54897;SDS011;40800;52.704;6.398;2023-07-31T01:00:55;17.00;;;16.00;;
54897;SDS011;40800;52.704;6.398;2023-07-31T01:03:20;17.50;;;16.40;;
54897;SDS011;40800;52.704;6.398;2023-07-31T01:05:52;17.40;;;16.23;;
54897;SDS011;40800;52.704;6.398;2023-07-31T01:08:56;16.67;;;15.75;;
54897;SDS011;40800;52.704;6.398;2023-07-31T01:13:58;16.42;;;15.60;;
54897;SDS011;40800;52.704;6.398;2023-07-31T01:16:25;16.70;;;15.80;;
54897;SDS011;40800;52.704;6.398;2023-07-31T01:18:51;16.67;;;15.77;;
54897;SDS011;40800;52.704;6.398;2023-07-31T01:24:07;17.00;;;16.00;;
54897;SDS011;40800;52.704;6.398;2023-07-31T01:26:47;16.75;;;15.85;;
54897;SDS011;40800;52.704;6.398;2023-07-31T01:31:55;16.92;;;16.02;;
54897;SDS011;40800;52.704;6.398;2023-07-31T01:34:24;16.67;;;15.80;;
54897;SDS011;40800;52.704;6.398;2023-07-31T01:36:51;17.27;;;16.23;;
54897;SDS011;40800;52.704;6.398;2023-07-31T01:39:16;17.45;;;16.45;;
54897;SDS011;40800;52.704;6.398;2023-07-31T01:41:45;16.98;;;16.08;;
54897;SDS011;40800;52.704;6.398;2023-07-31T01:44:11;17.58;;;16.48;;
54897;SDS011;40800;52.704;6.398;2023-07-31T01:46:37;17.10;;;16.20;;
54897;SDS011;40800;52.704;6.398;2023-07-31T01:49:02;16.92;;;16.10;;
54897;SDS011;40800;52.704;6.398;2023-07-31T01:51:30;16.58;;;15.77;;
54897;SDS011;40800;52.704;6.398;2023-07-31T01:53:59;16.40;;;15.50;;
54897;SDS011;40800;52.704;6.398;2023-07-31T01:56:27;17.05;;;16.20;;
54897;SDS011;40800;52.704;6.398;2023-07-31T01:58:53;17.60;;;16.60;;
54897;SDS011;40800;52.704;6.398;2023-07-31T02:01:19;17.08;;;16.15;;
54897;SDS011;40800;52.704;6.398;2023-07-31T02:03:44;17.08;;;16.17;;
54897;SDS011;40800;52.704;6.398;2023-07-31T02:06:10;17.42;;;16.52;;
54897;SDS011;40800;52.704;6.398;2023-07-31T02:08:36;17.88;;;16.73;;
54897;SDS011;40800;52.704;6.398;2023-07-31T02:11:01;17.75;;;16.85;;
54897;SDS011;40800;52.704;6.398;2023-07-31T02:13:27;18.05;;;16.95;;
54897;SDS011;40800;52.704;6.398;2023-07-31T02:15:52;18.67;;;17.58;;
54897;SDS011;40800;52.704;6.398;2023-07-31T02:18:18;17.73;;;16.83;;
54897;SDS011;40800;52.704;6.398;2023-07-31T02:20:48;18.73;;;17.75;;
54897;SDS011;40800;52.704;6.398;2023-07-31T02:23:17;18.38;;;17.38;;
54897;SDS011;40800;52.704;6.398;2023-07-31T02:25:43;18.83;;;17.87;;
54897;SDS011;40800;52.704;6.398;2023-07-31T02:28:09;19.45;;;18.40;;
54897;SDS011;40800;52.704;6.398;2023-07-31T02:30:35;19.30;;;18.20;;
54897;SDS011;40800;52.704;6.398;2023-07-31T02:33:01;18.90;;;17.80;;
54897;SDS011;40800;52.704;6.398;2023-07-31T02:35:26;19.08;;;17.98;;
54897;SDS011;40800;52.704;6.398;2023-07-31T02:37:52;18.67;;;17.63;;
54897;SDS011;40800;52.704;6.398;2023-07-31T02:40:18;19.13;;;18.13;;
54897;SDS011;40800;52.704;6.398;2023-07-31T02:42:43;19.00;;;17.85;;
54897;SDS011;40800;52.704;6.398;2023-07-31T02:45:09;19.40;;;18.23;;
54897;SDS011;40800;52.704;6.398;2023-07-31T02:47:34;18.98;;;17.88;;
54897;SDS011;40800;52.704;6.398;2023-07-31T02:50:01;20.25;;;19.15;;
54897;SDS011;40800;52.704;6.398;2023-07-31T02:52:27;20.45;;;19.30;;
54897;SDS011;40800;52.704;6.398;2023-07-31T02:54:53;20.88;;;19.58;;
54897;SDS011;40800;52.704;6.398;2023-07-31T02:57:18;21.05;;;19.80;;
54897;SDS011;40800;52.704;6.398;2023-07-31T02:59:44;20.67;;;19.58;;
54897;SDS011;40800;52.704;6.398;2023-07-31T03:02:10;20.80;;;19.50;;
54897;SDS011;40800;52.704;6.398;2023-07-31T03:04:36;20.83;;;19.63;;
54897;SDS011;40800;52.704;6.398;2023-07-31T03:07:01;21.33;;;19.92;;
54897;SDS011;40800;52.704;6.398;2023-07-31T03:09:27;20.50;;;19.38;;
54897;SDS011;40800;52.704;6.398;2023-07-31T03:11:53;20.83;;;19.63;;
54897;SDS011;40800;52.704;6.398;2023-07-31T03:14:18;21.80;;;20.30;;
54897;SDS011;40800;52.704;6.398;2023-07-31T03:16:44;20.40;;;19.20;;
54897;SDS011;40800;52.704;6.398;2023-07-31T03:19:09;20.58;;;19.38;;
54897;SDS011;40800;52.704;6.398;2023-07-31T03:21:35;20.70;;;19.40;;
54897;SDS011;40800;52.704;6.398;2023-07-31T03:24:01;20.25;;;19.05;;
54897;SDS011;40800;52.704;6.398;2023-07-31T03:26:26;20.65;;;19.35;;
54897;SDS011;40800;52.704;6.398;2023-07-31T03:28:52;20.08;;;18.85;;
54897;SDS011;40800;52.704;6.398;2023-07-31T03:31:17;20.48;;;19.38;;
54897;SDS011;40800;52.704;6.398;2023-07-31T03:33:43;20.80;;;19.50;;
54897;SDS011;40800;52.704;6.398;2023-07-31T03:36:08;20.80;;;19.50;;
54897;SDS011;40800;52.704;6.398;2023-07-31T03:38:34;20.67;;;19.48;;
54897;SDS011;40800;52.704;6.398;2023-07-31T03:41:00;20.92;;;19.83;;
54897;SDS011;40800;52.704;6.398;2023-07-31T03:43:25;21.67;;;20.27;;
54897;SDS011;40800;52.704;6.398;2023-07-31T03:45:51;21.85;;;20.55;;
54897;SDS011;40800;52.704;6.398;2023-07-31T03:48:17;21.73;;;19.98;;
54897;SDS011;40800;52.704;6.398;2023-07-31T03:50:42;22.02;;;20.58;;
54897;SDS011;40800;52.704;6.398;2023-07-31T03:53:08;21.48;;;20.15;;
54897;SDS011;40800;52.704;6.398;2023-07-31T03:55:33;21.00;;;19.90;;
54897;SDS011;40800;52.704;6.398;2023-07-31T03:57:59;21.95;;;20.65;;
54897;SDS011;40800;52.704;6.398;2023-07-31T04:00:27;22.75;;;21.27;;
54897;SDS011;40800;52.704;6.398;2023-07-31T04:02:53;22.33;;;21.02;;
54897;SDS011;40800;52.704;6.398;2023-07-31T04:05:19;22.23;;;20.98;;
54897;SDS011;40800;52.704;6.398;2023-07-31T04:07:44;21.75;;;20.45;;
54897;SDS011;40800;52.704;6.398;2023-07-31T04:10:10;21.88;;;20.52;;
54897;SDS011;40800;52.704;6.398;2023-07-31T04:12:35;22.23;;;20.98;;
54897;SDS011;40800;52.704;6.398;2023-07-31T04:15:01;23.02;;;21.33;;
54897;SDS011;40800;52.704;6.398;2023-07-31T04:17:27;25.52;;;23.48;;
54897;SDS011;40800;52.704;6.398;2023-07-31T04:19:52;26.80;;;24.40;;
54897;SDS011;40800;52.704;6.398;2023-07-31T04:22:18;26.90;;;24.33;;
54897;SDS011;40800;52.704;6.398;2023-07-31T04:24:43;28.08;;;25.60;;
54897;SDS011;40800;52.704;6.398;2023-07-31T04:27:09;28.90;;;26.15;;
54897;SDS011;40800;52.704;6.398;2023-07-31T04:29:35;29.48;;;26.35;;
54897;SDS011;40800;52.704;6.398;2023-07-31T04:32:00;30.90;;;27.67;;
54897;SDS011;40800;52.704;6.398;2023-07-31T04:34:26;30.98;;;27.80;;
54897;SDS011;40800;52.704;6.398;2023-07-31T04:36:51;31.48;;;28.27;;
54897;SDS011;40800;52.704;6.398;2023-07-31T04:39:17;30.70;;;27.52;;
54897;SDS011;40800;52.704;6.398;2023-07-31T04:41:42;32.38;;;29.25;;
54897;SDS011;40800;52.704;6.398;2023-07-31T04:44:08;31.30;;;28.10;;
54897;SDS011;40800;52.704;6.398;2023-07-31T04:46:36;34.33;;;28.38;;
54897;SDS011;40800;52.704;6.398;2023-07-31T04:49:02;32.90;;;29.43;;
54897;SDS011;40800;52.704;6.398;2023-07-31T04:51:28;35.88;;;29.52;;
54897;SDS011;40800;52.704;6.398;2023-07-31T04:53:53;47.10;;;42.88;;
54897;SDS011;40800;52.704;6.398;2023-07-31T04:56:19;34.15;;;30.52;;
54897;SDS011;40800;52.704;6.398;2023-07-31T04:58:44;35.00;;;29.02;;
54897;SDS011;40800;52.704;6.398;2023-07-31T05:01:10;37.00;;;29.98;;
54897;SDS011;40800;52.704;6.398;2023-07-31T05:03:35;38.97;;;30.20;;
54897;SDS011;40800;52.704;6.398;2023-07-31T05:06:01;33.65;;;29.25;;
54897;SDS011;40800;52.704;6.398;2023-07-31T05:08:27;39.78;;;30.00;;
54897;SDS011;40800;52.704;6.398;2023-07-31T05:10:52;34.75;;;29.88;;
54897;SDS011;40800;52.704;6.398;2023-07-31T05:13:18;35.58;;;29.48;;
54897;SDS011;40800;52.704;6.398;2023-07-31T05:15:43;37.00;;;29.25;;
54897;SDS011;40800;52.704;6.398;2023-07-31T05:18:10;42.20;;;29.95;;
54897;SDS011;40800;52.704;6.398;2023-07-31T05:20:35;36.78;;;30.38;;
54897;SDS011;40800;52.704;6.398;2023-07-31T05:23:01;35.55;;;30.45;;
54897;SDS011;40800;52.704;6.398;2023-07-31T05:25:27;41.08;;;32.33;;
54897;SDS011;40800;52.704;6.398;2023-07-31T05:27:52;43.70;;;30.75;;
54897;SDS011;40800;52.704;6.398;2023-07-31T05:30:18;38.38;;;30.05;;
54897;SDS011;40800;52.704;6.398;2023-07-31T05:32:43;37.38;;;28.90;;
54897;SDS011;40800;52.704;6.398;2023-07-31T05:35:09;36.08;;;30.83;;
54897;SDS011;40800;52.704;6.398;2023-07-31T05:37:35;38.42;;;29.67;;
54897;SDS011;40800;52.704;6.398;2023-07-31T05:40:00;43.28;;;30.50;;
54897;SDS011;40800;52.704;6.398;2023-07-31T05:42:26;42.28;;;29.50;;
54897;SDS011;40800;52.704;6.398;2023-07-31T05:44:52;39.05;;;30.92;;
54897;SDS011;40800;52.704;6.398;2023-07-31T05:47:17;37.13;;;30.85;;
54897;SDS011;40800;52.704;6.398;2023-07-31T05:49:43;40.65;;;29.85;;
54897;SDS011;40800;52.704;6.398;2023-07-31T05:52:09;37.43;;;30.20;;
54897;SDS011;40800;52.704;6.398;2023-07-31T05:54:35;35.50;;;30.25;;
54897;SDS011;40800;52.704;6.398;2023-07-31T05:57:00;39.60;;;30.85;;
54897;SDS011;40800;52.704;6.398;2023-07-31T05:59:26;37.42;;;30.55;;
54897;SDS011;40800;52.704;6.398;2023-07-31T06:01:52;33.50;;;29.73;;
54897;SDS011;40800;52.704;6.398;2023-07-31T06:04:18;35.90;;;30.27;;
54897;SDS011;40800;52.704;6.398;2023-07-31T06:06:43;33.17;;;30.15;;
54897;SDS011;40800;52.704;6.398;2023-07-31T06:09:09;35.78;;;29.45;;
54897;SDS011;40800;52.704;6.398;2023-07-31T06:11:34;32.63;;;29.15;;
54897;SDS011;40800;52.704;6.398;2023-07-31T06:14:00;34.38;;;30.80;;
54897;SDS011;40800;52.704;6.398;2023-07-31T06:16:26;33.05;;;29.65;;
54897;SDS011;40800;52.704;6.398;2023-07-31T06:18:52;33.17;;;29.53;;
54897;SDS011;40800;52.704;6.398;2023-07-31T06:21:17;35.30;;;30.42;;
54897;SDS011;40800;52.704;6.398;2023-07-31T06:23:43;33.20;;;29.60;;
54897;SDS011;40800;52.704;6.398;2023-07-31T06:26:09;33.60;;;30.35;;
54897;SDS011;40800;52.704;6.398;2023-07-31T06:28:34;33.60;;;30.25;;
54897;SDS011;40800;52.704;6.398;2023-07-31T06:31:00;37.28;;;31.55;;
54897;SDS011;40800;52.704;6.398;2023-07-31T06:33:26;33.92;;;30.50;;
54897;SDS011;40800;52.704;6.398;2023-07-31T06:35:52;34.78;;;31.05;;
54897;SDS011;40800;52.704;6.398;2023-07-31T06:38:21;36.45;;;31.10;;
54897;SDS011;40800;52.704;6.398;2023-07-31T06:40:49;35.47;;;30.30;;
54897;SDS011;40800;52.704;6.398;2023-07-31T06:43:14;33.45;;;30.20;;
54897;SDS011;40800;52.704;6.398;2023-07-31T06:45:40;31.73;;;28.70;;
54897;SDS011;40800;52.704;6.398;2023-07-31T06:48:06;30.67;;;27.98;;
54897;SDS011;40800;52.704;6.398;2023-07-31T06:50:31;29.42;;;26.73;;
54897;SDS011;40800;52.704;6.398;2023-07-31T06:52:57;32.00;;;29.15;;
54897;SDS011;40800;52.704;6.398;2023-07-31T06:55:23;31.60;;;28.70;;
54897;SDS011;40800;52.704;6.398;2023-07-31T06:57:50;33.88;;;30.55;;
54897;SDS011;40800;52.704;6.398;2023-07-31T07:00:18;32.75;;;29.35;;
54897;SDS011;40800;52.704;6.398;2023-07-31T07:02:44;32.30;;;29.23;;
54897;SDS011;40800;52.704;6.398;2023-07-31T07:05:12;31.13;;;28.23;;
54897;SDS011;40800;52.704;6.398;2023-07-31T07:07:38;30.45;;;27.88;;
54897;SDS011;40800;52.704;6.398;2023-07-31T07:10:04;30.13;;;27.45;;
54897;SDS011;40800;52.704;6.398;2023-07-31T07:12:30;29.70;;;27.10;;
54897;SDS011;40800;52.704;6.398;2023-07-31T07:14:57;29.40;;;26.83;;
54897;SDS011;40800;52.704;6.398;2023-07-31T07:17:24;29.75;;;27.13;;
54897;SDS011;40800;52.704;6.398;2023-07-31T07:19:50;30.02;;;27.38;;
54897;SDS011;40800;52.704;6.398;2023-07-31T07:22:15;28.75;;;26.55;;
54897;SDS011;40800;52.704;6.398;2023-07-31T07:24:41;27.27;;;25.08;;
54897;SDS011;40800;52.704;6.398;2023-07-31T07:27:07;27.00;;;24.70;;
54897;SDS011;40800;52.704;6.398;2023-07-31T07:29:37;28.23;;;25.73;;
54897;SDS011;40800;52.704;6.398;2023-07-31T07:32:03;26.35;;;24.45;;
54897;SDS011;40800;52.704;6.398;2023-07-31T07:34:29;26.40;;;24.10;;
54897;SDS011;40800;52.704;6.398;2023-07-31T07:36:55;25.42;;;23.63;;
54897;SDS011;40800;52.704;6.398;2023-07-31T07:39:20;26.17;;;24.27;;
54897;SDS011;40800;52.704;6.398;2023-07-31T07:41:46;25.95;;;24.08;;
54897;SDS011;40800;52.704;6.398;2023-07-31T07:44:12;25.93;;;24.03;;
54897;SDS011;40800;52.704;6.398;2023-07-31T07:46:38;25.92;;;23.83;;
54897;SDS011;40800;52.704;6.398;2023-07-31T07:49:04;25.13;;;23.45;;
54897;SDS011;40800;52.704;6.398;2023-07-31T07:51:30;25.20;;;23.33;;
54897;SDS011;40800;52.704;6.398;2023-07-31T07:53:56;25.02;;;23.23;;
54897;SDS011;40800;52.704;6.398;2023-07-31T07:56:23;25.15;;;23.45;;
54897;SDS011;40800;52.704;6.398;2023-07-31T07:58:49;24.48;;;22.88;;
54897;SDS011;40800;52.704;6.398;2023-07-31T08:01:15;26.23;;;24.27;;
54897;SDS011;40800;52.704;6.398;2023-07-31T08:03:41;24.73;;;23.23;;
54897;SDS011;40800;52.704;6.398;2023-07-31T08:06:07;25.33;;;23.48;;
54897;SDS011;40800;52.704;6.398;2023-07-31T08:11:00;25.42;;;23.75;;
54897;SDS011;40800;52.704;6.398;2023-07-31T08:13:26;24.58;;;23.02;;
54897;SDS011;40800;52.704;6.398;2023-07-31T08:15:51;24.00;;;22.55;;
54897;SDS011;40800;52.704;6.398;2023-07-31T08:18:17;24.48;;;22.90;;
54897;SDS011;40800;52.704;6.398;2023-07-31T08:20:42;24.60;;;23.20;;
54897;SDS011;40800;52.704;6.398;2023-07-31T08:23:08;24.33;;;22.73;;
54897;SDS011;40800;52.704;6.398;2023-07-31T08:25:37;24.23;;;22.73;;
54897;SDS011;40800;52.704;6.398;2023-07-31T08:28:04;24.25;;;22.77;;
54897;SDS011;40800;52.704;6.398;2023-07-31T08:30:30;24.23;;;22.75;;
54897;SDS011;40800;52.704;6.398;2023-07-31T08:32:55;23.73;;;22.25;;
54897;SDS011;40800;52.704;6.398;2023-07-31T08:35:21;23.05;;;21.80;;
54897;SDS011;40800;52.704;6.398;2023-07-31T08:37:47;24.27;;;22.77;;
54897;SDS011;40800;52.704;6.398;2023-07-31T08:40:13;23.48;;;22.17;;
54897;SDS011;40800;52.704;6.398;2023-07-31T08:42:45;23.40;;;21.92;;
54897;SDS011;40800;52.704;6.398;2023-07-31T08:45:15;24.65;;;23.05;;
54897;SDS011;40800;52.704;6.398;2023-07-31T08:47:46;23.70;;;22.30;;
54897;SDS011;40800;52.704;6.398;2023-07-31T08:50:13;23.98;;;22.58;;
54897;SDS011;40800;52.704;6.398;2023-07-31T08:52:40;24.17;;;22.77;;
54897;SDS011;40800;52.704;6.398;2023-07-31T08:55:06;23.33;;;21.88;;
54897;SDS011;40800;52.704;6.398;2023-07-31T09:00:00;22.37;;;21.17;;
54897;SDS011;40800;52.704;6.398;2023-07-31T09:02:28;22.53;;;21.33;;
54897;SDS011;40800;52.704;6.398;2023-07-31T09:04:59;22.77;;;21.50;;
54897;SDS011;40800;52.704;6.398;2023-07-31T09:07:26;22.65;;;21.38;;
54897;SDS011;40800;52.704;6.398;2023-07-31T09:09:52;21.80;;;20.60;;
54897;SDS011;40800;52.704;6.398;2023-07-31T09:12:18;21.60;;;20.40;;
54897;SDS011;40800;52.704;6.398;2023-07-31T09:14:45;22.77;;;21.58;;
54897;SDS011;40800;52.704;6.398;2023-07-31T09:17:12;22.45;;;21.15;;
54897;SDS011;40800;52.704;6.398;2023-07-31T09:19:37;22.45;;;21.30;;
54897;SDS011;40800;52.704;6.398;2023-07-31T09:22:04;22.48;;;21.38;;
54897;SDS011;40800;52.704;6.398;2023-07-31T09:24:31;22.58;;;21.38;;
54897;SDS011;40800;52.704;6.398;2023-07-31T09:26:58;22.40;;;21.20;;
54897;SDS011;40800;52.704;6.398;2023-07-31T09:29:25;22.33;;;21.15;;
54897;SDS011;40800;52.704;6.398;2023-07-31T09:31:52;22.35;;;21.15;;
54897;SDS011;40800;52.704;6.398;2023-07-31T09:34:19;22.38;;;21.20;;
54897;SDS011;40800;52.704;6.398;2023-07-31T09:36:52;22.63;;;21.50;;
54897;SDS011;40800;52.704;6.398;2023-07-31T09:39:18;22.48;;;21.23;;
54897;SDS011;40800;52.704;6.398;2023-07-31T09:41:53;22.55;;;21.23;;
54897;SDS011;40800;52.704;6.398;2023-07-31T09:44:20;21.55;;;20.45;;
54897;SDS011;40800;52.704;6.398;2023-07-31T09:46:46;21.90;;;20.73;;
54897;SDS011;40800;52.704;6.398;2023-07-31T09:49:13;22.80;;;21.67;;
54897;SDS011;40800;52.704;6.398;2023-07-31T09:51:40;23.05;;;21.85;;
54897;SDS011;40800;52.704;6.398;2023-07-31T09:54:13;22.10;;;20.90;;
54897;SDS011;40800;52.704;6.398;2023-07-31T09:56:47;22.75;;;21.55;;
54897;SDS011;40800;52.704;6.398;2023-07-31T09:59:17;22.83;;;21.63;;
54897;SDS011;40800;52.704;6.398;2023-07-31T10:01:45;23.80;;;22.60;;
54897;SDS011;40800;52.704;6.398;2023-07-31T10:04:12;23.85;;;22.75;;
54897;SDS011;40800;52.704;6.398;2023-07-31T10:09:05;23.80;;;22.67;;
54897;SDS011;40800;52.704;6.398;2023-07-31T10:11:42;23.38;;;22.17;;
54897;SDS011;40800;52.704;6.398;2023-07-31T10:14:16;24.13;;;22.92;;
54897;SDS011;40800;52.704;6.398;2023-07-31T10:16:46;23.08;;;21.77;;
54897;SDS011;40800;52.704;6.398;2023-07-31T10:19:12;23.88;;;22.55;;
54897;SDS011;40800;52.704;6.398;2023-07-31T10:21:38;23.27;;;22.17;;
54897;SDS011;40800;52.704;6.398;2023-07-31T10:24:04;23.92;;;22.73;;
54897;SDS011;40800;52.704;6.398;2023-07-31T10:26:31;25.17;;;23.98;;
54897;SDS011;40800;52.704;6.398;2023-07-31T10:29:00;23.73;;;22.52;;
54897;SDS011;40800;52.704;6.398;2023-07-31T10:31:26;23.45;;;22.13;;
54897;SDS011;40800;52.704;6.398;2023-07-31T10:33:53;23.90;;;22.67;;
54897;SDS011;40800;52.704;6.398;2023-07-31T10:36:20;22.63;;;21.52;;
54897;SDS011;40800;52.704;6.398;2023-07-31T10:38:49;23.13;;;22.02;;
54897;SDS011;40800;52.704;6.398;2023-07-31T10:41:15;22.75;;;21.65;;
54897;SDS011;40800;52.704;6.398;2023-07-31T10:43:42;23.73;;;22.63;;
54897;SDS011;40800;52.704;6.398;2023-07-31T10:46:14;24.13;;;23.02;;
54897;SDS011;40800;52.704;6.398;2023-07-31T10:48:40;24.48;;;23.38;;
54897;SDS011;40800;52.704;6.398;2023-07-31T10:51:07;22.73;;;21.73;;
54897;SDS011;40800;52.704;6.398;2023-07-31T10:53:35;23.10;;;22.00;;
54897;SDS011;40800;52.704;6.398;2023-07-31T10:56:04;23.05;;;21.95;;
54897;SDS011;40800;52.704;6.398;2023-07-31T10:58:31;23.52;;;22.33;;
54897;SDS011;40800;52.704;6.398;2023-07-31T11:01:01;24.85;;;23.63;;
54897;SDS011;40800;52.704;6.398;2023-07-31T11:03:41;23.15;;;22.05;;
54897;SDS011;40800;52.704;6.398;2023-07-31T11:06:08;23.27;;;22.17;;
54897;SDS011;40800;52.704;6.398;2023-07-31T11:08:35;24.60;;;23.40;;
54897;SDS011;40800;52.704;6.398;2023-07-31T11:11:07;23.00;;;21.90;;
54897;SDS011;40800;52.704;6.398;2023-07-31T11:13:41;23.80;;;22.70;;
54897;SDS011;40800;52.704;6.398;2023-07-31T11:16:07;24.35;;;23.25;;
54897;SDS011;40800;52.704;6.398;2023-07-31T11:21:00;23.15;;;22.05;;
54897;SDS011;40800;52.704;6.398;2023-07-31T11:23:25;22.65;;;21.65;;
54897;SDS011;40800;52.704;6.398;2023-07-31T11:25:51;23.13;;;22.13;;
54897;SDS011;40800;52.704;6.398;2023-07-31T11:28:17;22.88;;;21.77;;
54897;SDS011;40800;52.704;6.398;2023-07-31T11:33:11;22.88;;;21.77;;
54897;SDS011;40800;52.704;6.398;2023-07-31T11:35:41;23.42;;;22.17;;
54897;SDS011;40800;52.704;6.398;2023-07-31T11:38:27;23.17;;;22.08;;
54897;SDS011;40800;52.704;6.398;2023-07-31T11:40:55;22.83;;;21.73;;
54897;SDS011;40800;52.704;6.398;2023-07-31T11:43:22;24.30;;;23.10;;
54897;SDS011;40800;52.704;6.398;2023-07-31T11:45:49;23.10;;;22.05;;
54897;SDS011;40800;52.704;6.398;2023-07-31T11:48:29;23.45;;;22.35;;
54897;SDS011;40800;52.704;6.398;2023-07-31T11:50:59;23.85;;;22.75;;
54897;SDS011;40800;52.704;6.398;2023-07-31T11:53:27;24.75;;;23.35;;
54897;SDS011;40800;52.704;6.398;2023-07-31T11:55:59;24.42;;;23.23;;
54897;SDS011;40800;52.704;6.398;2023-07-31T11:58:25;24.15;;;22.92;;
54897;SDS011;40800;52.704;6.398;2023-07-31T12:00:52;23.65;;;22.50;;
54897;SDS011;40800;52.704;6.398;2023-07-31T12:03:18;26.58;;;25.10;;
54897;SDS011;40800;52.704;6.398;2023-07-31T12:05:46;25.33;;;24.02;;
54897;SDS011;40800;52.704;6.398;2023-07-31T12:08:13;24.52;;;23.13;;
54897;SDS011;40800;52.704;6.398;2023-07-31T12:10:39;23.20;;;22.00;;
54897;SDS011;40800;52.704;6.398;2023-07-31T12:18:10;26.15;;;24.67;;
54897;SDS011;40800;52.704;6.398;2023-07-31T12:20:40;27.30;;;25.90;;
54897;SDS011;40800;52.704;6.398;2023-07-31T12:23:14;28.33;;;26.65;;
54897;SDS011;40800;52.704;6.398;2023-07-31T12:25:59;28.25;;;26.65;;
54897;SDS011;40800;52.704;6.398;2023-07-31T12:28:29;28.23;;;26.40;;
54897;SDS011;40800;52.704;6.398;2023-07-31T12:30:58;27.75;;;26.15;;
54897;SDS011;40800;52.704;6.398;2023-07-31T12:33:30;26.73;;;25.05;;
54897;SDS011;40800;52.704;6.398;2023-07-31T12:36:03;27.00;;;25.20;;
54897;SDS011;40800;52.704;6.398;2023-07-31T12:38:32;27.10;;;25.40;;
54897;SDS011;40800;52.704;6.398;2023-07-31T12:40:58;27.65;;;25.83;;
54897;SDS011;40800;52.704;6.398;2023-07-31T12:43:24;27.27;;;25.48;;
54897;SDS011;40800;52.704;6.398;2023-07-31T12:45:50;25.38;;;23.73;;
54897;SDS011;40800;52.704;6.398;2023-07-31T12:48:15;25.80;;;24.27;;
54897;SDS011;40800;52.704;6.398;2023-07-31T12:50:41;26.17;;;24.77;;
54897;SDS011;40800;52.704;6.398;2023-07-31T12:53:07;26.65;;;25.15;;
54897;SDS011;40800;52.704;6.398;2023-07-31T12:55:32;27.02;;;25.38;;
54897;SDS011;40800;52.704;6.398;2023-07-31T12:57:59;27.83;;;26.23;;
54897;SDS011;40800;52.704;6.398;2023-07-31T13:00:26;27.40;;;25.90;;
54897;SDS011;40800;52.704;6.398;2023-07-31T13:02:52;26.83;;;25.42;;
54897;SDS011;40800;52.704;6.398;2023-07-31T13:05:17;26.33;;;24.70;;
54897;SDS011;40800;52.704;6.398;2023-07-31T13:10:10;27.02;;;25.48;;
54897;SDS011;40800;52.704;6.398;2023-07-31T13:12:35;26.50;;;24.73;;
54897;SDS011;40800;52.704;6.398;2023-07-31T13:15:01;26.48;;;25.08;;
54897;SDS011;40800;52.704;6.398;2023-07-31T13:17:27;26.17;;;24.58;;
54897;SDS011;40800;52.704;6.398;2023-07-31T13:19:53;25.30;;;23.90;;
54897;SDS011;40800;52.704;6.398;2023-07-31T13:22:18;25.98;;;24.45;;
54897;SDS011;40800;52.704;6.398;2023-07-31T13:24:44;26.85;;;25.27;;
54897;SDS011;40800;52.704;6.398;2023-07-31T13:27:09;28.30;;;26.60;;
54897;SDS011;40800;52.704;6.398;2023-07-31T13:29:35;27.30;;;25.70;;
54897;SDS011;40800;52.704;6.398;2023-07-31T13:32:01;28.00;;;26.02;;
54897;SDS011;40800;52.704;6.398;2023-07-31T13:34:26;27.55;;;25.80;;
54897;SDS011;40800;52.704;6.398;2023-07-31T13:36:53;27.17;;;25.48;;
54897;SDS011;40800;52.704;6.398;2023-07-31T13:39:20;28.35;;;26.55;;
54897;SDS011;40800;52.704;6.398;2023-07-31T13:41:46;28.27;;;26.48;;
54897;SDS011;40800;52.704;6.398;2023-07-31T13:44:11;27.52;;;25.95;;
54897;SDS011;40800;52.704;6.398;2023-07-31T13:46:37;29.23;;;27.27;;
54897;SDS011;40800;52.704;6.398;2023-07-31T13:49:02;30.40;;;28.48;;
54897;SDS011;40800;52.704;6.398;2023-07-31T13:51:28;28.95;;;27.15;;
54897;SDS011;40800;52.704;6.398;2023-07-31T13:53:54;27.38;;;25.80;;
54897;SDS011;40800;52.704;6.398;2023-07-31T13:56:19;28.15;;;26.17;;
54897;SDS011;40800;52.704;6.398;2023-07-31T13:58:45;27.45;;;25.85;;
54897;SDS011;40800;52.704;6.398;2023-07-31T14:01:11;27.75;;;26.15;;
54897;SDS011;40800;52.704;6.398;2023-07-31T14:03:36;27.20;;;25.40;;
54897;SDS011;40800;52.704;6.398;2023-07-31T14:06:02;26.90;;;25.20;;
54897;SDS011;40800;52.704;6.398;2023-07-31T14:08:28;26.85;;;25.15;;
54897;SDS011;40800;52.704;6.398;2023-07-31T14:10:54;26.10;;;24.60;;
54897;SDS011;40800;52.704;6.398;2023-07-31T14:13:20;26.97;;;25.20;;
54897;SDS011;40800;52.704;6.398;2023-07-31T14:15:46;26.67;;;25.13;;
54897;SDS011;40800;52.704;6.398;2023-07-31T14:18:11;27.17;;;25.40;;
54897;SDS011;40800;52.704;6.398;2023-07-31T14:20:37;26.95;;;25.05;;
54897;SDS011;40800;52.704;6.398;2023-07-31T14:23:03;26.17;;;24.67;;
54897;SDS011;40800;52.704;6.398;2023-07-31T14:25:28;25.25;;;23.77;;
54897;SDS011;40800;52.704;6.398;2023-07-31T14:27:54;26.20;;;24.60;;
54897;SDS011;40800;52.704;6.398;2023-07-31T14:30:20;26.20;;;24.60;;
54897;SDS011;40800;52.704;6.398;2023-07-31T14:32:46;27.27;;;25.67;;
54897;SDS011;40800;52.704;6.398;2023-07-31T14:35:12;26.90;;;25.35;;
54897;SDS011;40800;52.704;6.398;2023-07-31T14:37:38;26.02;;;24.45;;
54897;SDS011;40800;52.704;6.398;2023-07-31T14:40:04;25.42;;;23.85;;
54897;SDS011;40800;52.704;6.398;2023-07-31T14:42:31;24.83;;;23.42;;
54897;SDS011;40800;52.704;6.398;2023-07-31T14:44:56;25.15;;;23.50;;